This is the latest recevied weather packets stored in our database for station/object n3uvr. If no packets are shown the sender has not sent any weather packets the latest 10 day(s).
| Time | Temp. | Humidity | Pressure | Rain* | Wind** | Luminosity | Snow |
|---|---|---|---|---|---|---|---|
| 1788324615 | 22.22° C | 86% | 1016.8 hPa | 0 mm | - | 0 W/m² | - |
| 1788302351 | 27.22° C | 80% | 1013.7 hPa | 0 mm | - | 9 W/m² | - |
| 1788301170 | 27.78° C | 79% | 1013.4 hPa | 0 mm | - | 9 W/m² | - |
| 1788300563 | 28.33° C | 79% | 1013.4 hPa | 0 mm | - | 12 W/m² | - |
| 1788299975 | 28.33° C | 79% | 1013.5 hPa | 0 mm | - | 30 W/m² | - |
| 1788299370 | 28.33° C | 79% | 1013.6 hPa | 0 mm | - | 25 W/m² | - |
| 1788296968 | 27.78° C | 83% | 1013.6 hPa | 0 mm | - | 104 W/m² | - |
| 1788296354 | 27.22° C | 85% | 1013.6 hPa | 0 mm | - | 102 W/m² | - |
| 1788292765 | 27.22° C | 84% | 1013.8 hPa | 0 mm | - | 44 W/m² | - |
| 1788292163 | 27.22° C | 84% | 1014 hPa | 0 mm | - | 72 W/m² | - |
| 1788290947 | 26.67° C | 85% | 1014 hPa | 0 mm | - | 104 W/m² | - |
| 1788290348 | 26.67° C | 87% | 1014 hPa | 0 mm | - | 62 W/m² | - |
| 1788289754 | 26.11° C | 86% | 1014 hPa | 0 mm | - | 156 W/m² | - |
| 1788289167 | 25.56° C | 84% | 1014 hPa | 0 mm | - | 132 W/m² | - |
| 1788287341 | 24.44° C | 81% | 1014.1 hPa | 0 mm | - | 207 W/m² | - |
| 1788286134 | 23.89° C | 82% | 1014.1 hPa | 0 mm | - | 171 W/m² | - |
| 1788284332 | 23.33° C | 83% | 1014.3 hPa | 0 mm | - | 81 W/m² | - |
| 1788283733 | 23.33° C | 83% | 1014.3 hPa | 0 mm | - | 54 W/m² | - |
| 1788283116 | 23.33° C | 83% | 1014.4 hPa | 0.25 mm | - | 111 W/m² | - |
| 1788282514 | 23.33° C | 83% | 1014.5 hPa | 0.25 mm | - | 44 W/m² | - |
| 1788281908 | 22.78° C | 83% | 1014.7 hPa | 0.25 mm | - | 42 W/m² | - |
| 1788280719 | 22.78° C | 83% | 1014.9 hPa | 0.25 mm | - | 44 W/m² | - |
| 1788280119 | 22.78° C | 83% | 1014.9 hPa | 0.25 mm | - | 56 W/m² | - |
| 1788279508 | 22.78° C | 83% | 1015 hPa | 0 mm | - | 63 W/m² | - |
| 1788278891 | 22.78° C | 83% | 1015.1 hPa | 0 mm | - | 11 W/m² | - |
* Rain latest hour (hover to see other rain measurements)
** Current wind speed in m/s (hover to see current wind gust speed)